TimeCDT,TemperatureF,Dew PointF,Humidity,Sea Level PressureIn,VisibilityMPH,Wind Direction,Wind SpeedMPH,Gust SpeedMPH,PrecipitationIn,Events,Conditions,WindDirDegrees,DateUTC
12:15 AM,35.6,15.8,44,29.83,10.0,Calm,Calm,-,N/A,,Clear,0,2012-10-08 05:15:00
12:35 AM,33.8,15.8,48,29.82,10.0,Calm,Calm,-,N/A,,Clear,0,2012-10-08 05:35:00
12:55 AM,33.8,15.8,48,29.82,10.0,Calm,Calm,-,N/A,,Clear,0,2012-10-08 05:55:00
1:15 AM,33.8,15.8,48,29.82,10.0,Calm,Calm,-,N/A,,Clear,0,2012-10-08 06:15:00
1:35 AM,33.8,17.6,52,29.82,10.0,Calm,Calm,-,N/A,,Clear,0,2012-10-08 06:35:00
1:55 AM,33.8,15.8,48,29.82,10.0,Calm,Calm,-,N/A,,Clear,0,2012-10-08 06:55:00
2:15 AM,33.8,15.8,48,29.82,10.0,Calm,Calm,-,N/A,,Clear,0,2012-10-08 07:15:00
2:35 AM,33.8,17.6,52,29.81,10.0,SSE,3.5,-,N/A,,Clear,160,2012-10-08 07:35:00
2:55 AM,33.8,17.6,52,29.81,10.0,SSE,3.5,-,N/A,,Clear,160,2012-10-08 07:55:00
3:15 AM,35.6,17.6,48,29.80,10.0,Calm,Calm,-,N/A,,Clear,0,2012-10-08 08:15:00
3:35 AM,35.6,17.6,48,29.79,10.0,South,3.5,-,N/A,,Clear,180,2012-10-08 08:35:00
3:55 AM,35.6,17.6,48,29.78,10.0,Calm,Calm,-,N/A,,Scattered Clouds,0,2012-10-08 08:55:00
4:15 AM,37.4,19.4,48,29.77,10.0,Calm,Calm,-,N/A,,Scattered Clouds,0,2012-10-08 09:15:00
4:35 AM,37.4,19.4,48,29.77,10.0,SE,3.5,-,N/A,,Scattered Clouds,140,2012-10-08 09:35:00
4:56 AM,37.4,19.4,48,29.76,10.0,SSE,4.6,-,N/A,,Mostly Cloudy,150,2012-10-08 09:56:00
5:15 AM,39.2,19.4,45,29.76,10.0,SSE,3.5,-,N/A,,Overcast,150,2012-10-08 10:15:00
5:35 AM,39.2,19.4,45,29.76,10.0,SE,3.5,-,N/A,,Overcast,140,2012-10-08 10:35:00
5:56 AM,39.2,19.4,45,29.75,10.0,SSE,3.5,-,N/A,,Scattered Clouds,150,2012-10-08 10:56:00
6:15 AM,39.2,19.4,45,29.74,10.0,SSE,3.5,-,N/A,,Scattered Clouds,150,2012-10-08 11:15:00
6:35 AM,41.0,19.4,42,29.73,10.0,SSE,3.5,-,N/A,,Mostly Cloudy,160,2012-10-08 11:35:00
6:56 AM,42.8,19.4,39,29.72,10.0,Calm,Calm,-,N/A,,Mostly Cloudy,0,2012-10-08 11:56:00
7:15 AM,42.8,19.4,39,29.72,10.0,SSE,4.6,-,N/A,,Scattered Clouds,150,2012-10-08 12:15:00
7:35 AM,42.8,21.2,42,29.72,10.0,Calm,Calm,-,N/A,,Clear,0,2012-10-08 12:35:00
7:56 AM,42.8,21.2,42,29.72,10.0,Calm,Calm,-,N/A,,Clear,0,2012-10-08 12:56:00
8:15 AM,42.8,21.2,42,29.72,10.0,Calm,Calm,-,N/A,,Scattered Clouds,0,2012-10-08 13:15:00
8:35 AM,44.6,23.0,43,29.71,10.0,SSE,3.5,-,N/A,,Clear,160,2012-10-08 13:35:00
8:56 AM,46.4,23.0,40,29.71,10.0,SSE,4.6,-,N/A,,Clear,160,2012-10-08 13:56:00
9:15 AM,48.2,24.8,40,29.70,10.0,South,4.6,-,N/A,,Clear,170,2012-10-08 14:15:00
9:35 AM,48.2,24.8,40,29.69,10.0,South,5.8,-,N/A,,Clear,190,2012-10-08 14:35:00
9:56 AM,50.0,24.8,37,29.68,10.0,SSW,4.6,-,N/A,,Clear,200,2012-10-08 14:56:00
10:15 AM,51.8,24.8,35,29.67,10.0,SSW,8.1,-,N/A,,Clear,200,2012-10-08 15:15:00
10:35 AM,53.6,24.8,33,29.66,10.0,SSW,5.8,-,N/A,,Clear,200,2012-10-08 15:35:00
10:56 AM,53.6,24.8,33,29.65,10.0,SSW,6.9,-,N/A,,Clear,210,2012-10-08 15:56:00
11:15 AM,55.4,24.8,31,29.65,10.0,SSW,6.9,-,N/A,,Clear,210,2012-10-08 16:15:00
11:35 AM,55.4,26.6,33,29.65,10.0,SSW,5.8,-,N/A,,Clear,200,2012-10-08 16:35:00
11:56 AM,57.2,26.6,31,29.63,7.0,SSW,8.1,-,N/A,,Clear,200,2012-10-08 16:56:00
12:15 PM,57.2,26.6,31,29.61,10.0,South,8.1,-,N/A,Rain,Light Rain,190,2012-10-08 17:15:00
12:56 PM,55.4,33.8,44,29.60,7.0,South,4.6,-,N/A,Rain,Light Rain,190,2012-10-08 17:56:00
1:15 PM,55.4,33.8,44,29.61,10.0,SSW,5.8,-,N/A,,Scattered Clouds,200,2012-10-08 18:15:00
1:35 PM,55.4,32.0,41,29.60,10.0,SSW,13.8,17.3,N/A,,Scattered Clouds,210,2012-10-08 18:35:00
1:56 PM,60.8,30.2,31,29.59,10.0,SW,11.5,17.3,N/A,,Clear,220,2012-10-08 18:56:00
2:15 PM,62.6,28.4,27,29.58,10.0,WSW,18.4,24.2,N/A,,Clear,250,2012-10-08 19:15:00
2:35 PM,64.4,30.2,28,29.58,10.0,West,19.6,25.3,N/A,,Scattered Clouds,270,2012-10-08 19:35:00
2:56 PM,64.4,30.2,28,29.58,10.0,WSW,24.2,28.8,N/A,,Clear,250,2012-10-08 19:56:00
3:15 PM,64.4,33.8,32,29.59,10.0,WNW,19.6,29.9,N/A,,Scattered Clouds,290,2012-10-08 20:15:00
3:35 PM,64.4,35.6,34,29.60,10.0,WNW,20.7,25.3,N/A,,Scattered Clouds,300,2012-10-08 20:35:00
3:56 PM,64.4,35.6,34,29.60,10.0,WNW,18.4,28.8,N/A,,Scattered Clouds,300,2012-10-08 20:56:00
4:15 PM,66.2,37.4,35,29.61,10.0,West,21.9,31.1,N/A,,Scattered Clouds,280,2012-10-08 21:15:00
4:35 PM,64.4,37.4,37,29.61,10.0,WNW,18.4,24.2,N/A,,Clear,290,2012-10-08 21:35:00
4:56 PM,64.4,37.4,37,29.62,10.0,WNW,18.4,27.6,N/A,,Scattered Clouds,290,2012-10-08 21:56:00
5:15 PM,62.6,37.4,39,29.64,10.0,NW,21.9,31.1,N/A,,Mostly Cloudy,310,2012-10-08 22:15:00
5:35 PM,60.8,37.4,42,29.65,10.0,WNW,23.0,29.9,N/A,,Mostly Cloudy,300,2012-10-08 22:35:00
5:56 PM,60.8,37.4,42,29.66,10.0,WNW,18.4,27.6,N/A,,Mostly Cloudy,300,2012-10-08 22:56:00
6:15 PM,60.8,35.6,39,29.67,10.0,WNW,17.3,25.3,N/A,,Mostly Cloudy,300,2012-10-08 23:15:00
6:35 PM,59.0,35.6,42,29.68,10.0,NW,19.6,27.6,N/A,,Scattered Clouds,310,2012-10-08 23:35:00
6:56 PM,57.2,35.6,44,29.70,10.0,WNW,15.0,-,N/A,,Mostly Cloudy,300,2012-10-08 23:56:00
7:15 PM,57.2,35.6,44,29.71,10.0,NW,13.8,-,N/A,,Scattered Clouds,310,2012-10-09 00:15:00
7:35 PM,53.6,37.4,54,29.72,10.0,NNW,13.8,-,N/A,,Clear,330,2012-10-09 00:35:00
7:56 PM,51.8,37.4,58,29.73,10.0,NNW,8.1,-,N/A,,Clear,330,2012-10-09 00:56:00
8:15 PM,50.0,37.4,62,29.73,10.0,Calm,Calm,-,N/A,,Clear,0,2012-10-09 01:15:00
8:35 PM,50.0,37.4,62,29.73,10.0,Calm,Calm,-,N/A,,Clear,0,2012-10-09 01:35:00
8:56 PM,46.4,35.6,66,29.74,10.0,Calm,Calm,-,N/A,,Clear,0,2012-10-09 01:56:00
9:15 PM,46.4,35.6,66,29.74,10.0,WSW,3.5,-,N/A,,Clear,240,2012-10-09 02:15:00
9:35 PM,46.4,35.6,66,29.74,10.0,SW,4.6,-,N/A,,Clear,220,2012-10-09 02:35:00
9:56 PM,46.4,35.6,66,29.74,10.0,Calm,Calm,-,N/A,,Clear,0,2012-10-09 02:56:00
10:15 PM,46.4,35.6,66,29.74,10.0,SW,3.5,-,N/A,,Clear,220,2012-10-09 03:15:00
10:55 PM,44.6,32.0,61,29.75,10.0,SW,3.5,-,N/A,,Scattered Clouds,220,2012-10-09 03:55:00
11:35 PM,44.6,33.8,66,29.75,10.0,SW,3.5,-,N/A,,Overcast,230,2012-10-09 04:35:00
11:55 PM,44.6,33.8,66,29.75,10.0,WSW,4.6,-,N/A,,Mostly Cloudy,240,2012-10-09 04:55:00